sensor_id;sensor_type;location;lat;lon;timestamp;P1;durP1;ratioP1;P2;durP2;ratioP2
43509;SDS011;29105;57.764;40.952;2023-04-01T00:00:05;3.58;;;1.83;;
43509;SDS011;29105;57.764;40.952;2023-04-01T00:02:31;2.97;;;1.45;;
43509;SDS011;29105;57.764;40.952;2023-04-01T00:04:57;1.90;;;1.25;;
43509;SDS011;29105;57.764;40.952;2023-04-01T00:07:23;1.60;;;0.70;;
43509;SDS011;29105;57.764;40.952;2023-04-01T00:09:48;3.70;;;1.27;;
43509;SDS011;29105;57.764;40.952;2023-04-01T00:12:14;1.55;;;1.15;;
43509;SDS011;29105;57.764;40.952;2023-04-01T00:14:40;2.30;;;1.02;;
43509;SDS011;29105;57.764;40.952;2023-04-01T00:17:05;2.40;;;1.40;;
43509;SDS011;29105;57.764;40.952;2023-04-01T00:19:31;3.90;;;1.45;;
43509;SDS011;29105;57.764;40.952;2023-04-01T00:21:57;1.52;;;0.75;;
43509;SDS011;29105;57.764;40.952;2023-04-01T00:24:23;1.83;;;1.13;;
43509;SDS011;29105;57.764;40.952;2023-04-01T00:26:49;2.17;;;1.15;;
43509;SDS011;29105;57.764;40.952;2023-04-01T00:29:14;2.92;;;1.42;;
43509;SDS011;29105;57.764;40.952;2023-04-01T00:31:40;1.50;;;0.70;;
43509;SDS011;29105;57.764;40.952;2023-04-01T00:34:06;3.28;;;1.20;;
43509;SDS011;29105;57.764;40.952;2023-04-01T00:36:31;2.75;;;1.30;;
43509;SDS011;29105;57.764;40.952;2023-04-01T00:38:57;3.25;;;1.83;;
43509;SDS011;29105;57.764;40.952;2023-04-01T00:41:24;3.33;;;1.73;;
43509;SDS011;29105;57.764;40.952;2023-04-01T00:43:51;2.65;;;1.65;;
43509;SDS011;29105;57.764;40.952;2023-04-01T00:46:17;4.97;;;1.92;;
43509;SDS011;29105;57.764;40.952;2023-04-01T00:48:53;3.63;;;1.77;;
43509;SDS011;29105;57.764;40.952;2023-04-01T00:51:28;3.88;;;2.10;;
43509;SDS011;29105;57.764;40.952;2023-04-01T00:53:55;2.33;;;1.60;;
43509;SDS011;29105;57.764;40.952;2023-04-01T00:56:32;7.13;;;3.30;;
43509;SDS011;29105;57.764;40.952;2023-04-01T00:59:03;5.32;;;3.15;;
43509;SDS011;29105;57.764;40.952;2023-04-01T01:01:33;2.53;;;1.58;;
43509;SDS011;29105;57.764;40.952;2023-04-01T01:04:00;6.03;;;3.63;;
43509;SDS011;29105;57.764;40.952;2023-04-01T01:11:42;5.57;;;3.17;;
43509;SDS011;29105;57.764;40.952;2023-04-01T01:16:45;6.60;;;3.92;;
43509;SDS011;29105;57.764;40.952;2023-04-01T01:24:55;11.10;;;5.15;;
43509;SDS011;29105;57.764;40.952;2023-04-01T01:27:23;5.35;;;3.75;;
43509;SDS011;29105;57.764;40.952;2023-04-01T01:35:30;8.55;;;4.90;;
43509;SDS011;29105;57.764;40.952;2023-04-01T01:38:19;7.40;;;4.15;;
43509;SDS011;29105;57.764;40.952;2023-04-01T01:40:48;14.65;;;5.57;;
43509;SDS011;29105;57.764;40.952;2023-04-01T01:43:20;4.70;;;2.50;;
43509;SDS011;29105;57.764;40.952;2023-04-01T01:45:49;11.10;;;5.97;;
43509;SDS011;29105;57.764;40.952;2023-04-01T01:48:20;11.15;;;5.85;;
43509;SDS011;29105;57.764;40.952;2023-04-01T01:50:46;8.90;;;5.25;;
43509;SDS011;29105;57.764;40.952;2023-04-01T01:53:13;15.85;;;6.55;;
43509;SDS011;29105;57.764;40.952;2023-04-01T01:55:40;11.85;;;6.93;;
43509;SDS011;29105;57.764;40.952;2023-04-01T01:58:12;10.90;;;5.13;;
43509;SDS011;29105;57.764;40.952;2023-04-01T02:00:44;12.98;;;7.07;;
43509;SDS011;29105;57.764;40.952;2023-04-01T02:03:14;9.35;;;4.38;;
43509;SDS011;29105;57.764;40.952;2023-04-01T02:05:40;13.98;;;7.80;;
43509;SDS011;29105;57.764;40.952;2023-04-01T02:08:11;9.25;;;4.25;;
43509;SDS011;29105;57.764;40.952;2023-04-01T02:11:02;12.50;;;6.78;;
43509;SDS011;29105;57.764;40.952;2023-04-01T02:13:35;11.55;;;6.40;;
43509;SDS011;29105;57.764;40.952;2023-04-01T02:16:11;11.95;;;6.10;;
43509;SDS011;29105;57.764;40.952;2023-04-01T02:18:39;10.98;;;6.32;;
43509;SDS011;29105;57.764;40.952;2023-04-01T02:21:05;10.65;;;5.68;;
43509;SDS011;29105;57.764;40.952;2023-04-01T02:23:35;13.82;;;7.15;;
43509;SDS011;29105;57.764;40.952;2023-04-01T02:26:02;10.07;;;4.50;;
43509;SDS011;29105;57.764;40.952;2023-04-01T02:28:29;10.07;;;5.65;;
43509;SDS011;29105;57.764;40.952;2023-04-01T02:30:57;13.73;;;7.15;;
43509;SDS011;29105;57.764;40.952;2023-04-01T02:33:23;15.60;;;8.48;;
43509;SDS011;29105;57.764;40.952;2023-04-01T02:35:49;12.77;;;6.07;;
43509;SDS011;29105;57.764;40.952;2023-04-01T02:38:14;10.98;;;6.03;;
43509;SDS011;29105;57.764;40.952;2023-04-01T02:40:45;9.85;;;5.20;;
43509;SDS011;29105;57.764;40.952;2023-04-01T02:43:12;13.75;;;6.80;;
43509;SDS011;29105;57.764;40.952;2023-04-01T02:45:38;8.70;;;4.90;;
43509;SDS011;29105;57.764;40.952;2023-04-01T02:48:04;15.77;;;8.30;;
43509;SDS011;29105;57.764;40.952;2023-04-01T02:50:30;10.27;;;4.43;;
43509;SDS011;29105;57.764;40.952;2023-04-01T02:52:56;8.07;;;4.38;;
43509;SDS011;29105;57.764;40.952;2023-04-01T02:55:21;11.38;;;6.43;;
43509;SDS011;29105;57.764;40.952;2023-04-01T02:57:47;15.50;;;7.22;;
43509;SDS011;29105;57.764;40.952;2023-04-01T03:00:13;10.07;;;5.32;;
43509;SDS011;29105;57.764;40.952;2023-04-01T03:02:39;11.00;;;4.57;;
43509;SDS011;29105;57.764;40.952;2023-04-01T03:05:05;9.35;;;4.88;;
43509;SDS011;29105;57.764;40.952;2023-04-01T03:07:32;10.82;;;6.45;;
43509;SDS011;29105;57.764;40.952;2023-04-01T03:09:58;12.00;;;5.43;;
43509;SDS011;29105;57.764;40.952;2023-04-01T03:12:24;13.95;;;7.45;;
43509;SDS011;29105;57.764;40.952;2023-04-01T03:14:50;9.80;;;5.93;;
43509;SDS011;29105;57.764;40.952;2023-04-01T03:17:15;11.07;;;5.90;;
43509;SDS011;29105;57.764;40.952;2023-04-01T03:19:41;11.35;;;5.80;;
43509;SDS011;29105;57.764;40.952;2023-04-01T03:22:07;10.60;;;5.53;;
43509;SDS011;29105;57.764;40.952;2023-04-01T03:24:35;12.68;;;6.95;;
43509;SDS011;29105;57.764;40.952;2023-04-01T03:27:01;11.63;;;6.30;;
43509;SDS011;29105;57.764;40.952;2023-04-01T03:29:26;12.02;;;6.57;;
43509;SDS011;29105;57.764;40.952;2023-04-01T03:31:52;15.10;;;6.40;;
43509;SDS011;29105;57.764;40.952;2023-04-01T03:34:17;13.82;;;7.57;;
43509;SDS011;29105;57.764;40.952;2023-04-01T03:36:43;12.43;;;7.00;;
43509;SDS011;29105;57.764;40.952;2023-04-01T03:39:09;9.23;;;4.47;;
43509;SDS011;29105;57.764;40.952;2023-04-01T03:41:35;11.65;;;6.40;;
43509;SDS011;29105;57.764;40.952;2023-04-01T03:44:03;12.98;;;7.90;;
43509;SDS011;29105;57.764;40.952;2023-04-01T03:46:29;9.60;;;4.53;;
43509;SDS011;29105;57.764;40.952;2023-04-01T03:48:54;14.65;;;7.90;;
43509;SDS011;29105;57.764;40.952;2023-04-01T03:51:20;12.20;;;7.82;;
43509;SDS011;29105;57.764;40.952;2023-04-01T03:53:45;9.63;;;5.35;;
43509;SDS011;29105;57.764;40.952;2023-04-01T03:56:11;14.82;;;8.23;;
43509;SDS011;29105;57.764;40.952;2023-04-01T03:58:37;16.25;;;7.65;;
43509;SDS011;29105;57.764;40.952;2023-04-01T04:01:12;16.25;;;8.27;;
43509;SDS011;29105;57.764;40.952;2023-04-01T04:03:41;13.18;;;7.07;;
43509;SDS011;29105;57.764;40.952;2023-04-01T04:06:10;15.70;;;8.18;;
43509;SDS011;29105;57.764;40.952;2023-04-01T04:08:36;15.30;;;8.20;;
43509;SDS011;29105;57.764;40.952;2023-04-01T04:11:02;14.52;;;8.05;;
43509;SDS011;29105;57.764;40.952;2023-04-01T04:13:27;16.75;;;8.95;;
43509;SDS011;29105;57.764;40.952;2023-04-01T04:15:53;12.70;;;6.90;;
43509;SDS011;29105;57.764;40.952;2023-04-01T04:18:19;16.55;;;9.15;;
43509;SDS011;29105;57.764;40.952;2023-04-01T04:20:45;11.90;;;5.95;;
43509;SDS011;29105;57.764;40.952;2023-04-01T04:23:13;12.63;;;7.28;;
43509;SDS011;29105;57.764;40.952;2023-04-01T04:25:39;11.18;;;5.40;;
43509;SDS011;29105;57.764;40.952;2023-04-01T04:28:05;12.50;;;6.80;;
43509;SDS011;29105;57.764;40.952;2023-04-01T04:30:30;12.55;;;7.13;;
43509;SDS011;29105;57.764;40.952;2023-04-01T04:32:56;14.55;;;7.85;;
43509;SDS011;29105;57.764;40.952;2023-04-01T04:35:21;13.40;;;7.50;;
43509;SDS011;29105;57.764;40.952;2023-04-01T04:37:47;15.38;;;8.23;;
43509;SDS011;29105;57.764;40.952;2023-04-01T04:40:12;13.18;;;8.13;;
43509;SDS011;29105;57.764;40.952;2023-04-01T04:42:38;16.80;;;9.30;;
43509;SDS011;29105;57.764;40.952;2023-04-01T04:45:04;12.13;;;6.75;;
43509;SDS011;29105;57.764;40.952;2023-04-01T04:47:30;12.50;;;7.75;;
43509;SDS011;29105;57.764;40.952;2023-04-01T04:49:56;13.80;;;8.25;;
43509;SDS011;29105;57.764;40.952;2023-04-01T04:52:21;11.88;;;6.88;;
43509;SDS011;29105;57.764;40.952;2023-04-01T04:54:47;12.98;;;7.47;;
43509;SDS011;29105;57.764;40.952;2023-04-01T04:57:13;11.85;;;6.95;;
43509;SDS011;29105;57.764;40.952;2023-04-01T04:59:39;8.32;;;4.63;;
43509;SDS011;29105;57.764;40.952;2023-04-01T05:02:05;12.95;;;8.23;;
43509;SDS011;29105;57.764;40.952;2023-04-01T05:04:34;12.13;;;7.70;;
43509;SDS011;29105;57.764;40.952;2023-04-01T05:07:00;12.65;;;7.15;;
43509;SDS011;29105;57.764;40.952;2023-04-01T05:09:26;14.90;;;8.38;;
43509;SDS011;29105;57.764;40.952;2023-04-01T05:11:52;12.52;;;6.38;;
43509;SDS011;29105;57.764;40.952;2023-04-01T05:14:17;13.05;;;7.85;;
43509;SDS011;29105;57.764;40.952;2023-04-01T05:16:43;9.98;;;5.72;;
43509;SDS011;29105;57.764;40.952;2023-04-01T05:19:08;11.00;;;6.85;;
43509;SDS011;29105;57.764;40.952;2023-04-01T05:21:34;12.30;;;8.25;;
43509;SDS011;29105;57.764;40.952;2023-04-01T05:24:00;9.70;;;5.55;;
43509;SDS011;29105;57.764;40.952;2023-04-01T05:26:26;9.85;;;5.85;;
43509;SDS011;29105;57.764;40.952;2023-04-01T05:28:51;10.07;;;6.65;;
43509;SDS011;29105;57.764;40.952;2023-04-01T05:31:17;10.20;;;6.32;;
43509;SDS011;29105;57.764;40.952;2023-04-01T05:33:42;12.38;;;8.20;;
43509;SDS011;29105;57.764;40.952;2023-04-01T05:36:09;10.18;;;6.60;;
43509;SDS011;29105;57.764;40.952;2023-04-01T05:38:35;8.57;;;5.65;;
43509;SDS011;29105;57.764;40.952;2023-04-01T05:41:01;8.38;;;5.55;;
43509;SDS011;29105;57.764;40.952;2023-04-01T05:43:28;9.63;;;6.32;;
43509;SDS011;29105;57.764;40.952;2023-04-01T05:45:54;9.75;;;6.07;;
43509;SDS011;29105;57.764;40.952;2023-04-01T05:48:20;11.02;;;7.20;;
43509;SDS011;29105;57.764;40.952;2023-04-01T05:50:46;8.95;;;5.78;;
43509;SDS011;29105;57.764;40.952;2023-04-01T05:53:11;7.57;;;5.28;;
43509;SDS011;29105;57.764;40.952;2023-04-01T05:55:37;6.93;;;4.65;;
43509;SDS011;29105;57.764;40.952;2023-04-01T05:58:03;9.23;;;6.38;;
43509;SDS011;29105;57.764;40.952;2023-04-01T06:00:28;6.25;;;4.43;;
43509;SDS011;29105;57.764;40.952;2023-04-01T06:02:54;7.50;;;5.03;;
43509;SDS011;29105;57.764;40.952;2023-04-01T06:05:21;7.65;;;5.22;;
43509;SDS011;29105;57.764;40.952;2023-04-01T06:07:54;7.30;;;5.05;;
43509;SDS011;29105;57.764;40.952;2023-04-01T06:10:36;7.10;;;4.40;;
43509;SDS011;29105;57.764;40.952;2023-04-01T06:21:15;6.70;;;4.07;;
43509;SDS011;29105;57.764;40.952;2023-04-01T06:45:40;5.10;;;3.75;;
43509;SDS011;29105;57.764;40.952;2023-04-01T06:54:04;5.90;;;3.45;;
43509;SDS011;29105;57.764;40.952;2023-04-01T06:56:33;4.88;;;3.10;;
43509;SDS011;29105;57.764;40.952;2023-04-01T06:59:02;4.75;;;3.55;;
43509;SDS011;29105;57.764;40.952;2023-04-01T07:04:52;3.80;;;2.88;;
43509;SDS011;29105;57.764;40.952;2023-04-01T07:10:05;4.57;;;3.42;;
43509;SDS011;29105;57.764;40.952;2023-04-01T07:15:16;5.65;;;2.22;;
43509;SDS011;29105;57.764;40.952;2023-04-01T07:17:44;4.50;;;3.53;;
43509;SDS011;29105;57.764;40.952;2023-04-01T07:20:32;5.13;;;3.90;;
43509;SDS011;29105;57.764;40.952;2023-04-01T07:22:59;4.90;;;3.15;;
43509;SDS011;29105;57.764;40.952;2023-04-01T07:25:45;5.05;;;4.00;;
43509;SDS011;29105;57.764;40.952;2023-04-01T07:28:14;4.90;;;2.95;;
43509;SDS011;29105;57.764;40.952;2023-04-01T07:36:18;6.82;;;3.22;;
43509;SDS011;29105;57.764;40.952;2023-04-01T07:42:35;3.25;;;2.33;;
43509;SDS011;29105;57.764;40.952;2023-04-01T07:56:01;4.10;;;2.65;;
43509;SDS011;29105;57.764;40.952;2023-04-01T08:14:50;4.15;;;2.80;;
43509;SDS011;29105;57.764;40.952;2023-04-01T08:23:00;8.40;;;5.47;;
43509;SDS011;29105;57.764;40.952;2023-04-01T08:25:37;7.15;;;2.85;;
43509;SDS011;29105;57.764;40.952;2023-04-01T08:28:16;3.40;;;2.58;;
43509;SDS011;29105;57.764;40.952;2023-04-01T08:33:27;5.15;;;3.42;;
43509;SDS011;29105;57.764;40.952;2023-04-01T08:36:05;12.40;;;5.28;;
43509;SDS011;29105;57.764;40.952;2023-04-01T08:52:44;7.05;;;4.28;;
43509;SDS011;29105;57.764;40.952;2023-04-01T09:00:33;3.97;;;3.05;;
43509;SDS011;29105;57.764;40.952;2023-04-01T09:06:23;3.83;;;2.00;;
43509;SDS011;29105;57.764;40.952;2023-04-01T09:21:02;2.38;;;1.60;;
43509;SDS011;29105;57.764;40.952;2023-04-01T09:34:54;2.13;;;1.48;;
43509;SDS011;29105;57.764;40.952;2023-04-01T09:37:35;2.05;;;0.95;;
43509;SDS011;29105;57.764;40.952;2023-04-01T10:00:29;6.03;;;3.10;;
43509;SDS011;29105;57.764;40.952;2023-04-01T10:52:40;4.32;;;2.55;;
43509;SDS011;29105;57.764;40.952;2023-04-01T11:20:18;4.68;;;3.00;;
43509;SDS011;29105;57.764;40.952;2023-04-01T11:22:51;5.00;;;1.92;;
43509;SDS011;29105;57.764;40.952;2023-04-01T11:33:47;20.20;;;10.32;;
43509;SDS011;29105;57.764;40.952;2023-04-01T11:47:48;4.13;;;2.65;;
43509;SDS011;29105;57.764;40.952;2023-04-01T11:52:55;9.40;;;5.63;;
43509;SDS011;29105;57.764;40.952;2023-04-01T12:03:11;10.00;;;5.93;;
43509;SDS011;29105;57.764;40.952;2023-04-01T12:05:51;10.70;;;6.30;;
43509;SDS011;29105;57.764;40.952;2023-04-01T12:13:54;8.73;;;5.60;;
43509;SDS011;29105;57.764;40.952;2023-04-01T12:16:28;10.38;;;6.43;;
43509;SDS011;29105;57.764;40.952;2023-04-01T12:35:24;28.30;;;15.05;;
43509;SDS011;29105;57.764;40.952;2023-04-01T12:43:28;12.63;;;8.18;;
43509;SDS011;29105;57.764;40.952;2023-04-01T13:17:34;12.40;;;6.55;;
43509;SDS011;29105;57.764;40.952;2023-04-01T13:25:23;13.55;;;6.72;;
43509;SDS011;29105;57.764;40.952;2023-04-01T13:33:27;8.95;;;5.85;;
43509;SDS011;29105;57.764;40.952;2023-04-01T13:39:00;12.30;;;6.57;;
43509;SDS011;29105;57.764;40.952;2023-04-01T13:44:06;13.38;;;7.05;;
43509;SDS011;29105;57.764;40.952;2023-04-01T13:56:23;10.38;;;6.50;;
43509;SDS011;29105;57.764;40.952;2023-04-01T14:20:39;9.75;;;6.55;;
43509;SDS011;29105;57.764;40.952;2023-04-01T14:29:02;10.27;;;6.80;;
43509;SDS011;29105;57.764;40.952;2023-04-01T14:31:53;10.30;;;5.97;;
43509;SDS011;29105;57.764;40.952;2023-04-01T14:40:49;15.80;;;9.77;;
43509;SDS011;29105;57.764;40.952;2023-04-01T14:46:08;18.75;;;11.30;;
43509;SDS011;29105;57.764;40.952;2023-04-01T14:48:58;18.00;;;10.60;;
43509;SDS011;29105;57.764;40.952;2023-04-01T14:51:31;19.52;;;10.95;;
43509;SDS011;29105;57.764;40.952;2023-04-01T15:01:50;17.90;;;8.80;;
43509;SDS011;29105;57.764;40.952;2023-04-01T15:04:27;22.27;;;11.25;;
43509;SDS011;29105;57.764;40.952;2023-04-01T15:07:19;13.73;;;7.97;;
43509;SDS011;29105;57.764;40.952;2023-04-01T15:10:09;15.48;;;7.03;;
43509;SDS011;29105;57.764;40.952;2023-04-01T15:12:57;16.55;;;9.25;;
43509;SDS011;29105;57.764;40.952;2023-04-01T15:16:18;18.70;;;10.13;;
43509;SDS011;29105;57.764;40.952;2023-04-01T15:21:25;17.25;;;9.98;;
43509;SDS011;29105;57.764;40.952;2023-04-01T15:24:06;14.98;;;7.38;;
43509;SDS011;29105;57.764;40.952;2023-04-01T15:26:42;15.00;;;7.72;;
43509;SDS011;29105;57.764;40.952;2023-04-01T15:38:17;14.27;;;8.90;;
43509;SDS011;29105;57.764;40.952;2023-04-01T15:43:45;18.27;;;9.27;;
43509;SDS011;29105;57.764;40.952;2023-04-01T15:51:53;19.48;;;10.10;;
43509;SDS011;29105;57.764;40.952;2023-04-01T16:00:19;14.93;;;9.60;;
43509;SDS011;29105;57.764;40.952;2023-04-01T16:02:52;15.80;;;7.00;;
43509;SDS011;29105;57.764;40.952;2023-04-01T16:05:54;16.92;;;8.07;;
43509;SDS011;29105;57.764;40.952;2023-04-01T16:11:13;14.77;;;7.60;;
43509;SDS011;29105;57.764;40.952;2023-04-01T16:13:49;11.02;;;7.55;;
43509;SDS011;29105;57.764;40.952;2023-04-01T16:19:17;9.80;;;6.05;;
43509;SDS011;29105;57.764;40.952;2023-04-01T16:25:14;12.68;;;7.03;;
43509;SDS011;29105;57.764;40.952;2023-04-01T16:27:47;12.00;;;7.03;;
43509;SDS011;29105;57.764;40.952;2023-04-01T16:38:24;12.20;;;7.18;;
43509;SDS011;29105;57.764;40.952;2023-04-01T16:41:04;11.57;;;6.88;;
43509;SDS011;29105;57.764;40.952;2023-04-01T16:43:48;8.98;;;4.82;;
43509;SDS011;29105;57.764;40.952;2023-04-01T16:54:53;10.93;;;5.65;;
43509;SDS011;29105;57.764;40.952;2023-04-01T16:58:13;8.00;;;4.65;;
43509;SDS011;29105;57.764;40.952;2023-04-01T17:00:41;9.40;;;5.50;;
43509;SDS011;29105;57.764;40.952;2023-04-01T17:03:22;5.35;;;3.53;;
43509;SDS011;29105;57.764;40.952;2023-04-01T17:05:55;6.05;;;3.90;;
43509;SDS011;29105;57.764;40.952;2023-04-01T17:11:16;6.45;;;3.70;;
43509;SDS011;29105;57.764;40.952;2023-04-01T17:24:35;7.10;;;4.10;;
43509;SDS011;29105;57.764;40.952;2023-04-01T17:27:14;9.20;;;4.95;;
43509;SDS011;29105;57.764;40.952;2023-04-01T17:41:07;8.98;;;5.60;;
43509;SDS011;29105;57.764;40.952;2023-04-01T18:08:43;12.52;;;7.25;;
43509;SDS011;29105;57.764;40.952;2023-04-01T18:14:23;10.45;;;5.93;;
43509;SDS011;29105;57.764;40.952;2023-04-01T18:17:21;11.23;;;6.57;;
43509;SDS011;29105;57.764;40.952;2023-04-01T18:25:40;11.40;;;6.60;;
43509;SDS011;29105;57.764;40.952;2023-04-01T18:33:47;10.32;;;6.13;;
43509;SDS011;29105;57.764;40.952;2023-04-01T18:36:36;11.43;;;7.55;;
43509;SDS011;29105;57.764;40.952;2023-04-01T18:39:17;13.00;;;7.95;;
43509;SDS011;29105;57.764;40.952;2023-04-01T18:47:08;12.73;;;8.00;;
43509;SDS011;29105;57.764;40.952;2023-04-01T18:49:43;11.60;;;8.00;;
43509;SDS011;29105;57.764;40.952;2023-04-01T18:57:39;15.93;;;7.68;;
43509;SDS011;29105;57.764;40.952;2023-04-01T19:00:19;11.98;;;7.28;;
43509;SDS011;29105;57.764;40.952;2023-04-01T19:05:41;9.93;;;6.28;;
43509;SDS011;29105;57.764;40.952;2023-04-01T19:22:03;12.32;;;7.80;;
43509;SDS011;29105;57.764;40.952;2023-04-01T19:24:58;12.38;;;7.40;;
43509;SDS011;29105;57.764;40.952;2023-04-01T19:35:41;14.25;;;8.70;;
43509;SDS011;29105;57.764;40.952;2023-04-01T20:02:26;14.73;;;7.72;;
43509;SDS011;29105;57.764;40.952;2023-04-01T20:04:57;16.80;;;9.38;;
43509;SDS011;29105;57.764;40.952;2023-04-01T20:07:37;14.52;;;7.78;;
43509;SDS011;29105;57.764;40.952;2023-04-01T20:10:10;14.70;;;9.32;;
43509;SDS011;29105;57.764;40.952;2023-04-01T20:12:44;16.60;;;10.13;;
43509;SDS011;29105;57.764;40.952;2023-04-01T20:18:02;19.65;;;8.65;;
43509;SDS011;29105;57.764;40.952;2023-04-01T20:20:30;20.13;;;9.95;;
43509;SDS011;29105;57.764;40.952;2023-04-01T20:25:54;22.98;;;9.02;;
43509;SDS011;29105;57.764;40.952;2023-04-01T20:28:25;16.85;;;10.00;;
43509;SDS011;29105;57.764;40.952;2023-04-01T20:33:50;16.45;;;9.60;;
43509;SDS011;29105;57.764;40.952;2023-04-01T20:38:57;11.43;;;6.97;;
43509;SDS011;29105;57.764;40.952;2023-04-01T20:42:03;13.00;;;6.32;;
43509;SDS011;29105;57.764;40.952;2023-04-01T20:44:41;13.18;;;8.30;;
43509;SDS011;29105;57.764;40.952;2023-04-01T20:50:40;14.82;;;7.85;;
43509;SDS011;29105;57.764;40.952;2023-04-01T20:53:19;14.70;;;8.32;;
43509;SDS011;29105;57.764;40.952;2023-04-01T21:14:59;14.73;;;8.15;;
43509;SDS011;29105;57.764;40.952;2023-04-01T21:20:24;13.50;;;8.70;;
43509;SDS011;29105;57.764;40.952;2023-04-01T21:32:24;17.63;;;9.80;;
43509;SDS011;29105;57.764;40.952;2023-04-01T21:35:21;21.65;;;12.10;;
43509;SDS011;29105;57.764;40.952;2023-04-01T21:43:15;19.52;;;10.82;;
43509;SDS011;29105;57.764;40.952;2023-04-01T21:48:50;17.98;;;9.65;;
43509;SDS011;29105;57.764;40.952;2023-04-01T22:00:35;12.48;;;6.35;;
43509;SDS011;29105;57.764;40.952;2023-04-01T22:03:21;22.08;;;12.30;;
43509;SDS011;29105;57.764;40.952;2023-04-01T22:11:06;27.02;;;13.05;;
43509;SDS011;29105;57.764;40.952;2023-04-01T22:19:06;19.87;;;10.83;;
43509;SDS011;29105;57.764;40.952;2023-04-01T22:27:26;22.38;;;11.65;;
43509;SDS011;29105;57.764;40.952;2023-04-01T22:32:57;21.95;;;12.65;;
43509;SDS011;29105;57.764;40.952;2023-04-01T22:41:14;25.52;;;11.35;;
43509;SDS011;29105;57.764;40.952;2023-04-01T22:43:45;19.80;;;11.48;;
43509;SDS011;29105;57.764;40.952;2023-04-01T22:51:47;23.38;;;11.75;;
43509;SDS011;29105;57.764;40.952;2023-04-01T22:54:23;21.88;;;10.13;;
43509;SDS011;29105;57.764;40.952;2023-04-01T23:01:57;21.60;;;10.88;;
43509;SDS011;29105;57.764;40.952;2023-04-01T23:04:29;21.60;;;12.65;;
43509;SDS011;29105;57.764;40.952;2023-04-01T23:07:02;22.10;;;11.73;;
43509;SDS011;29105;57.764;40.952;2023-04-01T23:09:33;20.23;;;10.95;;
43509;SDS011;29105;57.764;40.952;2023-04-01T23:12:02;17.40;;;9.75;;
43509;SDS011;29105;57.764;40.952;2023-04-01T23:25:39;24.25;;;11.25;;
43509;SDS011;29105;57.764;40.952;2023-04-01T23:33:19;21.02;;;12.70;;
43509;SDS011;29105;57.764;40.952;2023-04-01T23:38:38;18.15;;;10.07;;
43509;SDS011;29105;57.764;40.952;2023-04-01T23:41:07;17.52;;;9.38;;
43509;SDS011;29105;57.764;40.952;2023-04-01T23:43:38;18.67;;;10.63;;
43509;SDS011;29105;57.764;40.952;2023-04-01T23:46:06;18.08;;;9.55;;
43509;SDS011;29105;57.764;40.952;2023-04-01T23:48:34;16.02;;;9.07;;
43509;SDS011;29105;57.764;40.952;2023-04-01T23:51:12;16.40;;;7.65;;
43509;SDS011;29105;57.764;40.952;2023-04-01T23:53:41;14.82;;;6.07;;
43509;SDS011;29105;57.764;40.952;2023-04-01T23:56:10;17.40;;;10.63;;
